Time;durP1;ratioP1;P1;durP2;ratioP2;P2;SDS_P1;SDS_P2;PMS_P1;PMS_P2;Temp;Humidity;BMP_temperature;BMP_pressure;BME280_temperature;BME280_humidity;BME280_pressure;Samples;Min_cycle;Max_cycle;Signal;HPM_P1;HPM_P2
2024/03/13 00:00:16;;;;;;;10.25;3.30;;;11.10;99.90;;;;;;5028435;28;20035;-76
2024/03/13 00:02:41;;;;;;;16.85;3.03;;;11.10;99.90;;;;;;5012181;28;20021;-76
2024/03/13 00:05:10;;;;;;;10.35;3.13;;;11.10;99.90;;;;;;5028151;28;20232;-76
2024/03/13 00:07:37;;;;;;;10.85;2.63;;;11.10;99.90;;;;;;5028292;28;20033;-77
2024/03/13 00:10:06;;;;;;;9.30;2.45;;;11.10;99.90;;;;;;5046073;28;20088;-76
2024/03/13 00:12:33;;;;;;;15.10;2.97;;;11.10;99.90;;;;;;5028586;28;20207;-76
2024/03/13 00:14:59;;;;;;;9.38;2.65;;;11.20;99.90;;;;;;5011893;28;20106;-76
2024/03/13 00:17:25;;;;;;;12.32;3.05;;;11.20;99.90;;;;;;5045667;28;20053;-77
2024/03/13 00:19:51;;;;;;;14.02;2.78;;;11.20;99.90;;;;;;5045062;28;20033;-77
2024/03/13 00:22:20;;;;;;;14.25;2.75;;;11.20;99.90;;;;;;5011389;28;20100;-77
2024/03/13 00:24:49;;;;;;;12.90;2.80;;;11.20;99.90;;;;;;5011912;28;20049;-77
2024/03/13 00:27:15;;;;;;;18.80;2.58;;;11.20;99.90;;;;;;5032555;28;20025;-77
2024/03/13 00:29:44;;;;;;;12.70;2.45;;;11.20;99.90;;;;;;5052249;28;20230;-77
2024/03/13 00:32:12;;;;;;;6.00;1.55;;;11.20;99.90;;;;;;5034957;28;20021;-77
2024/03/13 00:34:38;;;;;;;14.20;3.15;;;11.20;99.90;;;;;;5018184;28;20191;-77
2024/03/13 00:37:04;;;;;;;12.82;3.25;;;11.20;99.90;;;;;;5034415;28;20036;-78
2024/03/13 00:39:30;;;;;;;15.60;3.42;;;11.20;99.90;;;;;;5034732;28;20031;-77
2024/03/13 00:41:55;;;;;;;7.20;2.38;;;11.10;99.90;;;;;;5034631;28;20060;-77
2024/03/13 00:44:22;;;;;;;15.70;3.15;;;11.10;99.90;;;;;;5034374;28;20041;-78
2024/03/13 00:46:48;;;;;;;16.73;3.55;;;11.10;99.90;;;;;;5051036;28;20337;-77
2024/03/13 00:49:15;;;;;;;12.27;2.80;;;11.10;99.90;;;;;;5034484;28;20187;-77
2024/03/13 00:51:40;;;;;;;12.52;2.75;;;11.00;99.90;;;;;;5034670;28;20052;-77
2024/03/13 00:54:06;;;;;;;14.00;2.90;;;11.00;99.90;;;;;;5034558;28;20052;-77
2024/03/13 00:56:32;;;;;;;27.75;5.10;;;11.00;99.90;;;;;;5051642;28;20033;-76
2024/03/13 00:58:58;;;;;;;20.05;4.15;;;11.00;99.90;;;;;;5050800;28;20342;-77
2024/03/13 01:01:24;;;;;;;15.63;3.40;;;11.00;99.90;;;;;;5034401;28;20029;-77
2024/03/13 01:03:51;;;;;;;18.75;3.63;;;11.00;99.90;;;;;;5034225;28;20044;-77
2024/03/13 01:06:19;;;;;;;38.13;6.63;;;11.10;99.90;;;;;;5034290;28;20053;-77
2024/03/13 01:08:46;;;;;;;19.08;3.38;;;11.00;99.90;;;;;;5034973;28;20017;-77
2024/03/13 01:11:11;;;;;;;18.65;3.83;;;11.00;99.90;;;;;;5034442;28;20035;-77
2024/03/13 01:13:37;;;;;;;31.58;4.45;;;11.00;99.90;;;;;;5051853;28;20030;-78
2024/03/13 01:16:07;;;;;;;30.95;4.65;;;11.00;99.90;;;;;;5034335;28;20025;-77
2024/03/13 01:18:33;;;;;;;27.80;6.53;;;11.00;99.90;;;;;;5018286;28;20209;-77
2024/03/13 01:20:59;;;;;;;22.65;4.72;;;11.00;99.90;;;;;;5051317;28;20275;-77
2024/03/13 01:23:25;;;;;;;20.42;3.65;;;11.00;99.90;;;;;;5051741;28;20059;-76
2024/03/13 01:25:53;;;;;;;16.85;3.83;;;11.00;99.90;;;;;;5034266;28;20032;-76
2024/03/13 01:28:21;;;;;;;25.63;5.35;;;11.00;99.90;;;;;;5017945;28;20029;-75
2024/03/13 01:30:46;;;;;;;20.60;5.03;;;11.10;99.90;;;;;;5034549;28;20049;-76
2024/03/13 01:33:12;;;;;;;25.08;4.00;;;11.10;99.90;;;;;;5034140;28;20046;-77
2024/03/13 01:35:38;;;;;;;11.40;2.47;;;11.10;99.90;;;;;;5034209;28;20021;-77
2024/03/13 01:38:04;;;;;;;24.70;5.15;;;11.00;99.90;;;;;;5015669;28;20048;-76
2024/03/13 01:57:12;;;;;;;28.15;3.90;;;10.90;99.90;;;;;;5028256;28;20053;-77
2024/03/13 01:59:48;;;;;;;23.92;4.15;;;10.90;99.90;;;;;;5027436;28;20022;-77
2024/03/13 02:02:22;;;;;;;19.67;3.30;;;10.90;99.90;;;;;;5028457;28;20041;-76
2024/03/13 02:04:49;;;;;;;29.75;4.38;;;10.90;99.90;;;;;;5036564;28;20021;-76
2024/03/13 02:07:15;;;;;;;28.33;4.78;;;11.00;99.90;;;;;;5036548;28;20093;-78
2024/03/13 02:09:41;;;;;;;26.52;4.28;;;11.00;99.90;;;;;;5036285;28;20014;-77
2024/03/13 02:12:10;;;;;;;18.45;4.68;;;11.00;99.90;;;;;;5036754;28;20030;-77
2024/03/13 02:14:36;;;;;;;20.43;4.37;;;11.00;99.90;;;;;;5016204;28;20045;-74
2024/03/13 02:17:02;;;;;;;22.52;3.80;;;11.00;99.90;;;;;;5013191;28;20026;-75
2024/03/13 02:19:29;;;;;;;18.92;3.40;;;11.00;99.90;;;;;;5031253;28;20040;-74
2024/03/13 02:21:59;;;;;;;18.75;3.25;;;11.00;99.90;;;;;;5031226;28;20053;-75
2024/03/13 02:24:24;;;;;;;25.07;4.83;;;11.00;99.90;;;;;;5031291;28;20051;-74
2024/03/13 02:26:50;;;;;;;21.13;4.28;;;11.00;99.90;;;;;;5014852;28;20046;-74
2024/03/13 02:29:15;;;;;;;20.25;3.47;;;11.00;99.90;;;;;;5030504;28;20387;-74
2024/03/13 02:31:41;;;;;;;25.25;3.70;;;11.00;99.90;;;;;;5031586;28;20026;-73
2024/03/13 02:34:09;;;;;;;23.98;3.38;;;11.00;99.90;;;;;;5031839;28;20276;-75
2024/03/13 02:36:35;;;;;;;28.02;4.32;;;11.00;99.90;;;;;;5030290;28;20038;-74
2024/03/13 02:39:01;;;;;;;14.25;3.13;;;11.00;99.90;;;;;;5030548;28;20041;-74
2024/03/13 02:41:27;;;;;;;23.35;4.38;;;11.00;99.90;;;;;;5030981;28;20030;-74
2024/03/13 02:43:54;;;;;;;24.42;4.45;;;11.00;99.90;;;;;;5030075;28;20346;-74
2024/03/13 02:46:19;;;;;;;32.70;4.95;;;11.00;99.90;;;;;;5042186;28;20042;-74
2024/03/13 02:48:45;;;;;;;28.17;4.15;;;11.00;99.90;;;;;;5049916;28;20105;-74
2024/03/13 02:51:11;;;;;;;17.00;2.95;;;11.00;99.90;;;;;;5033862;28;20355;-74
2024/03/13 02:53:38;;;;;;;30.30;4.38;;;11.00;99.90;;;;;;5051949;28;20021;-74
2024/03/13 02:56:04;;;;;;;22.17;4.18;;;11.00;99.90;;;;;;5034281;28;20162;-75
2024/03/13 02:58:30;;;;;;;15.75;3.15;;;11.00;99.90;;;;;;5034907;28;20083;-74
2024/03/13 03:00:55;;;;;;;28.85;4.25;;;11.00;99.90;;;;;;5017831;28;20025;-75
2024/03/13 03:03:21;;;;;;;20.90;3.92;;;11.00;99.90;;;;;;5032832;28;20306;-74
2024/03/13 03:05:47;;;;;;;27.02;3.72;;;11.00;99.90;;;;;;5033345;28;20053;-74
2024/03/13 03:08:12;;;;;;;25.88;3.90;;;11.00;99.90;;;;;;5032311;28;20025;-74
2024/03/13 03:10:38;;;;;;;12.90;2.70;;;11.00;99.90;;;;;;5032275;28;20021;-75
2024/03/13 03:13:04;;;;;;;36.72;4.40;;;11.00;99.90;;;;;;5032321;28;20041;-75
2024/03/13 03:15:33;;;;;;;25.80;3.53;;;11.00;99.90;;;;;;5032163;28;20044;-75
2024/03/13 03:18:00;;;;;;;19.52;3.55;;;11.00;99.90;;;;;;5047729;28;20040;-74
2024/03/13 03:20:26;;;;;;;21.73;4.13;;;11.00;99.90;;;;;;5014563;28;20040;-74
2024/03/13 03:22:53;;;;;;;14.95;3.22;;;10.90;99.90;;;;;;5030396;28;20029;-74
2024/03/13 03:25:19;;;;;;;27.02;3.58;;;10.90;99.90;;;;;;5029934;28;20071;-74
2024/03/13 03:27:44;;;;;;;25.25;4.35;;;10.90;99.90;;;;;;5031904;28;20080;-74
2024/03/13 03:30:13;;;;;;;17.80;3.00;;;10.90;99.90;;;;;;5048878;28;20021;-74
2024/03/13 03:32:39;;;;;;;15.65;3.38;;;10.90;99.90;;;;;;5047065;28;20083;-74
2024/03/13 03:35:06;;;;;;;16.98;3.15;;;10.90;99.90;;;;;;5046199;28;20040;-74
2024/03/13 03:37:31;;;;;;;18.45;3.97;;;10.90;99.90;;;;;;5046283;28;20095;-74
2024/03/13 03:39:57;;;;;;;9.00;2.75;;;10.90;99.90;;;;;;5012410;28;20036;-74
2024/03/13 03:42:24;;;;;;;19.52;3.83;;;10.90;99.90;;;;;;5045858;28;20037;-74
2024/03/13 03:44:50;;;;;;;28.30;4.13;;;10.90;99.90;;;;;;5046175;28;20020;-74
2024/03/13 03:47:15;;;;;;;18.63;3.58;;;10.90;99.90;;;;;;5045619;28;20074;-74
2024/03/13 03:49:41;;;;;;;30.92;3.92;;;10.90;99.90;;;;;;5028748;28;20046;-74
2024/03/13 03:52:07;;;;;;;26.75;4.22;;;10.80;99.90;;;;;;5028568;28;20021;-74
2024/03/13 03:54:36;;;;;;;19.20;3.45;;;10.90;99.90;;;;;;5012112;28;20025;-74
2024/03/13 03:57:02;;;;;;;12.98;3.05;;;10.90;99.90;;;;;;5028961;28;20034;-74
2024/03/13 03:59:27;;;;;;;19.20;3.45;;;10.90;99.90;;;;;;5012088;28;20160;-74
2024/03/13 04:01:53;;;;;;;15.75;3.88;;;10.90;99.90;;;;;;5028092;28;20088;-74
2024/03/13 04:04:19;;;;;;;20.73;3.15;;;10.90;99.90;;;;;;5045527;28;20275;-74
2024/03/13 04:06:45;;;;;;;16.23;2.92;;;10.90;99.90;;;;;;5045803;28;20025;-73
2024/03/13 04:09:16;;;;;;;18.88;3.00;;;10.90;99.90;;;;;;5028475;28;20022;-73
2024/03/13 04:11:42;;;;;;;22.88;4.00;;;10.90;99.90;;;;;;5029256;28;20033;-73
2024/03/13 04:14:09;;;;;;;21.67;3.47;;;10.80;99.90;;;;;;5028375;28;20032;-74
2024/03/13 04:16:35;;;;;;;13.75;2.55;;;10.80;99.90;;;;;;5011886;28;20029;-74
2024/03/13 04:19:01;;;;;;;17.90;3.50;;;10.70;99.90;;;;;;5028195;28;20138;-73
2024/03/13 04:21:27;;;;;;;28.23;4.18;;;10.70;99.90;;;;;;5011518;28;20109;-73
2024/03/13 04:23:54;;;;;;;17.38;2.92;;;10.60;99.90;;;;;;5028228;28;20095;-73
2024/03/13 04:26:20;;;;;;;20.52;4.00;;;10.60;99.90;;;;;;5028320;28;20092;-73
2024/03/13 04:28:46;;;;;;;19.48;4.15;;;10.60;99.90;;;;;;5028146;28;20079;-73
2024/03/13 04:31:15;;;;;;;22.08;3.88;;;10.60;99.90;;;;;;5045564;28;20182;-73
2024/03/13 04:33:41;;;;;;;13.38;2.97;;;10.60;99.90;;;;;;5028773;28;20063;-73
2024/03/13 04:36:07;;;;;;;20.63;3.72;;;10.60;99.90;;;;;;5028233;28;20171;-74
2024/03/13 04:38:33;;;;;;;16.08;2.83;;;10.60;99.90;;;;;;5011692;28;20029;-73
2024/03/13 04:40:58;;;;;;;22.88;4.15;;;10.50;99.90;;;;;;5027993;28;20087;-73
2024/03/13 04:43:27;;;;;;;16.17;3.00;;;10.50;99.90;;;;;;5011541;28;20030;-73
2024/03/13 04:45:53;;;;;;;14.95;3.30;;;10.50;99.90;;;;;;5045071;28;20157;-73
2024/03/13 04:48:19;;;;;;;16.42;2.83;;;10.50;99.90;;;;;;5044970;28;20036;-72
2024/03/13 04:50:45;;;;;;;7.20;2.00;;;10.50;99.90;;;;;;5027790;28;20018;-73
2024/03/13 04:53:10;;;;;;;15.15;2.70;;;10.50;99.90;;;;;;5044316;28;20041;-73
2024/03/13 04:55:36;;;;;;;10.32;2.08;;;10.50;99.90;;;;;;5027985;28;20083;-73
2024/03/13 04:58:02;;;;;;;12.90;1.92;;;10.40;99.90;;;;;;5027980;28;20029;-73
2024/03/13 05:00:27;;;;;;;12.95;2.22;;;10.40;99.90;;;;;;5028044;28;20128;-73
2024/03/13 05:02:54;;;;;;;10.75;1.77;;;10.40;99.90;;;;;;5045211;28;20033;-74
2024/03/13 05:05:20;;;;;;;10.82;1.65;;;10.40;99.90;;;;;;5028012;28;20084;-74
2024/03/13 05:07:46;;;;;;;10.70;2.28;;;10.40;99.90;;;;;;5027932;28;20025;-73
2024/03/13 05:10:16;;;;;;;10.77;1.83;;;10.40;99.90;;;;;;5027649;28;20029;-73
2024/03/13 05:12:43;;;;;;;14.07;1.52;;;10.40;99.90;;;;;;5028339;28;20021;-73
2024/03/13 05:15:09;;;;;;;6.75;1.55;;;10.50;99.90;;;;;;5031787;28;20214;-73
2024/03/13 05:17:34;;;;;;;8.02;2.08;;;10.50;99.90;;;;;;5031486;28;20029;-73
2024/03/13 05:20:01;;;;;;;5.22;1.08;;;10.50;99.90;;;;;;5031676;28;20025;-73
2024/03/13 05:22:30;;;;;;;3.55;1.05;;;10.50;99.90;;;;;;5031344;28;20025;-73
2024/03/13 05:24:58;;;;;;;6.25;1.13;;;10.60;99.90;;;;;;5031699;28;20068;-74
2024/03/13 05:27:24;;;;;;;4.07;1.48;;;10.60;99.90;;;;;;5015201;28;20021;-73
2024/03/13 05:29:50;;;;;;;7.72;1.15;;;10.70;99.90;;;;;;5031118;28;20032;-74
2024/03/13 05:32:16;;;;;;;8.10;1.20;;;10.70;99.90;;;;;;5014589;28;20029;-73
2024/03/13 05:34:41;;;;;;;6.22;1.25;;;10.80;99.90;;;;;;5014704;28;20037;-73
2024/03/13 05:37:12;;;;;;;5.53;1.27;;;10.80;99.90;;;;;;5014673;28;20025;-73
2024/03/13 05:39:37;;;;;;;9.02;2.08;;;10.80;99.90;;;;;;5015367;28;20057;-74
2024/03/13 05:42:03;;;;;;;4.43;1.05;;;10.80;99.90;;;;;;5031112;28;20040;-73
2024/03/13 05:44:29;;;;;;;6.32;1.05;;;10.80;99.90;;;;;;5030901;28;20244;-74
2024/03/13 05:46:54;;;;;;;3.58;1.05;;;10.80;99.90;;;;;;5030857;28;20052;-74
2024/03/13 05:49:20;;;;;;;6.82;1.55;;;10.90;99.90;;;;;;5030918;28;20052;-74
2024/03/13 05:51:47;;;;;;;4.78;1.13;;;10.90;99.90;;;;;;5014408;28;20017;-74
2024/03/13 05:54:13;;;;;;;4.93;1.20;;;10.90;99.90;;;;;;5030716;28;20026;-74
2024/03/13 05:56:38;;;;;;;6.63;1.38;;;10.90;99.90;;;;;;5030703;28;20025;-74
2024/03/13 05:59:05;;;;;;;4.35;1.35;;;10.90;99.90;;;;;;5030871;28;20033;-74
2024/03/13 06:01:30;;;;;;;13.38;2.13;;;10.90;99.90;;;;;;5030895;28;20025;-74
2024/03/13 06:03:58;;;;;;;6.47;1.13;;;10.90;99.90;;;;;;5046902;28;20044;-73
2024/03/13 06:06:24;;;;;;;9.23;1.35;;;11.00;99.90;;;;;;5046906;28;20045;-73
2024/03/13 06:08:50;;;;;;;7.95;1.75;;;11.00;99.90;;;;;;5014048;28;20029;-74
2024/03/13 06:11:18;;;;;;;4.00;1.40;;;11.00;99.90;;;;;;5030400;28;20017;-74
2024/03/13 06:13:45;;;;;;;9.15;1.70;;;11.00;99.90;;;;;;5030837;28;20033;-74
2024/03/13 06:16:10;;;;;;;3.47;1.30;;;11.10;99.90;;;;;;5030278;28;20033;-74
2024/03/13 06:18:36;;;;;;;9.82;2.10;;;11.10;99.90;;;;;;5047761;28;20079;-74
2024/03/13 06:21:03;;;;;;;7.95;1.50;;;11.10;99.90;;;;;;5030281;28;20048;-73
2024/03/13 06:23:29;;;;;;;9.85;1.30;;;11.00;99.90;;;;;;5030223;28;20082;-73
2024/03/13 06:25:57;;;;;;;8.77;1.60;;;11.10;99.90;;;;;;5029606;28;20299;-74
2024/03/13 06:31:07;;;;;;;6.22;1.40;;;11.00;99.90;;;;;;5032659;28;20087;-74
2024/03/13 06:33:32;;;;;;;7.07;1.75;;;11.00;99.90;;;;;;5013554;28;20033;-74
2024/03/13 06:35:58;;;;;;;2.80;1.00;;;11.00;99.90;;;;;;5047455;28;20087;-74
2024/03/13 06:38:24;;;;;;;4.03;1.67;;;11.00;99.90;;;;;;5029849;28;20310;-74
2024/03/13 06:40:50;;;;;;;8.77;1.55;;;11.00;99.90;;;;;;5047381;28;20029;-74
2024/03/13 06:43:16;;;;;;;8.07;2.13;;;11.00;99.90;;;;;;5047256;28;20033;-74
2024/03/13 06:45:45;;;;;;;7.82;1.65;;;11.00;99.90;;;;;;5009809;28;20117;-74
2024/03/13 06:48:12;;;;;;;7.47;1.80;;;11.00;99.90;;;;;;5026475;28;20033;-74
2024/03/13 06:50:38;;;;;;;8.90;1.75;;;11.00;99.90;;;;;;5027177;28;20335;-74
2024/03/13 06:53:04;;;;;;;5.20;1.90;;;11.00;99.90;;;;;;5027151;28;20029;-74
2024/03/13 06:55:30;;;;;;;10.30;2.03;;;11.00;99.90;;;;;;5026408;28;20025;-73
2024/03/13 06:57:56;;;;;;;10.38;1.75;;;11.00;99.90;;;;;;5026774;28;20038;-74
2024/03/13 07:00:21;;;;;;;6.85;2.30;;;11.00;99.90;;;;;;5026019;28;20048;-74
2024/03/13 07:02:48;;;;;;;10.38;1.88;;;11.00;99.90;;;;;;5026719;28;20026;-73
2024/03/13 07:05:15;;;;;;;9.95;2.20;;;11.00;99.90;;;;;;5026047;28;20037;-73
2024/03/13 07:07:42;;;;;;;8.60;1.95;;;11.00;99.90;;;;;;5026155;28;20318;-74
2024/03/13 07:10:11;;;;;;;8.48;1.80;;;11.00;99.90;;;;;;5027049;28;20284;-73
2024/03/13 07:12:38;;;;;;;15.63;2.33;;;11.00;99.90;;;;;;5026054;28;20029;-73
2024/03/13 07:15:09;;;;;;;9.93;2.10;;;11.00;99.90;;;;;;5026821;28;20022;-75
2024/03/13 07:17:35;;;;;;;9.77;2.55;;;11.00;99.90;;;;;;5026885;28;20280;-74
2024/03/13 07:20:01;;;;;;;7.35;2.42;;;11.00;99.90;;;;;;5025721;28;20041;-74
2024/03/13 07:22:26;;;;;;;10.63;1.90;;;11.00;99.90;;;;;;5025562;28;20057;-74
2024/03/13 07:24:52;;;;;;;10.43;2.20;;;11.00;99.90;;;;;;5009131;28;20029;-74
2024/03/13 07:27:18;;;;;;;14.45;2.30;;;11.00;99.90;;;;;;5025588;28;20030;-74
2024/03/13 07:29:43;;;;;;;7.53;2.05;;;11.00;99.90;;;;;;5025679;28;20045;-76
2024/03/13 07:32:09;;;;;;;15.38;2.15;;;11.00;99.90;;;;;;5025388;28;20088;-76
2024/03/13 07:34:34;;;;;;;9.02;2.05;;;11.00;99.90;;;;;;5025635;28;20067;-76
2024/03/13 07:37:00;;;;;;;10.38;2.30;;;11.00;99.90;;;;;;5008293;28;20030;-76
2024/03/13 07:39:28;;;;;;;16.45;2.17;;;11.00;99.90;;;;;;5009210;28;20091;-76
2024/03/13 07:41:54;;;;;;;14.32;2.30;;;10.90;99.90;;;;;;5025182;28;20137;-76
2024/03/13 07:44:20;;;;;;;8.40;1.73;;;11.00;99.90;;;;;;5026177;28;20034;-76
2024/03/13 07:46:45;;;;;;;15.20;2.40;;;11.00;99.90;;;;;;5008385;28;20061;-76
2024/03/13 07:49:13;;;;;;;11.57;2.80;;;11.00;99.90;;;;;;5024903;28;20022;-76
2024/03/13 07:51:39;;;;;;;16.20;3.35;;;10.90;99.90;;;;;;5024915;28;20046;-76
2024/03/13 07:54:06;;;;;;;14.75;3.08;;;11.00;99.90;;;;;;5026334;28;20029;-76
2024/03/13 07:56:32;;;;;;;12.65;2.40;;;11.00;99.90;;;;;;5025034;28;20079;-76
2024/03/13 07:58:57;;;;;;;15.07;2.33;;;11.00;99.90;;;;;;5026024;28;20033;-76
2024/03/13 08:01:24;;;;;;;17.17;3.13;;;11.00;99.90;;;;;;5025937;28;20064;-76
2024/03/13 08:03:49;;;;;;;10.45;2.83;;;11.00;99.90;;;;;;5025135;28;20033;-76
2024/03/13 08:06:15;;;;;;;16.33;2.67;;;11.00;99.90;;;;;;5008356;28;20111;-75
2024/03/13 08:08:41;;;;;;;22.40;3.05;;;10.90;99.90;;;;;;5024786;28;20034;-76
2024/03/13 08:11:06;;;;;;;10.82;2.33;;;10.90;99.90;;;;;;5025643;28;20049;-73
2024/03/13 08:13:32;;;;;;;14.75;2.20;;;10.90;99.90;;;;;;5008501;28;20107;-76
2024/03/13 08:15:57;;;;;;;10.70;2.83;;;11.00;99.90;;;;;;5024885;28;20042;-76
2024/03/13 08:18:24;;;;;;;11.90;2.60;;;11.00;99.90;;;;;;5024367;28;20308;-76
2024/03/13 08:20:52;;;;;;;9.93;2.58;;;11.00;99.90;;;;;;5008293;28;20030;-78
2024/03/13 08:23:18;;;;;;;11.60;2.33;;;11.00;99.90;;;;;;5025785;28;20042;-76
2024/03/13 08:25:44;;;;;;;11.95;1.80;;;11.00;99.90;;;;;;5024785;28;20084;-76
2024/03/13 08:28:10;;;;;;;12.05;2.10;;;11.00;99.90;;;;;;5007983;28;20270;-76
2024/03/13 08:30:36;;;;;;;11.15;2.15;;;11.00;99.90;;;;;;5024470;28;20072;-76
2024/03/13 08:33:02;;;;;;;9.18;1.85;;;11.00;99.90;;;;;;5008026;28;20030;-76
2024/03/13 08:35:30;;;;;;;8.65;2.10;;;11.00;99.90;;;;;;5024204;28;20053;-77
2024/03/13 08:37:59;;;;;;;15.20;2.13;;;11.00;99.90;;;;;;5024547;28;20196;-76
2024/03/13 08:40:28;;;;;;;9.88;1.92;;;11.00;99.90;;;;;;5024508;28;20025;-76
2024/03/13 08:42:54;;;;;;;10.65;2.20;;;11.00;99.90;;;;;;5024322;28;20026;-76
2024/03/13 08:45:20;;;;;;;9.07;1.73;;;11.00;99.90;;;;;;5024028;28;20054;-77
2024/03/13 08:47:46;;;;;;;9.25;1.88;;;11.00;99.90;;;;;;5009508;28;20341;-76
2024/03/13 08:50:12;;;;;;;9.02;1.73;;;11.10;99.90;;;;;;5011519;28;20030;-76
2024/03/13 08:52:38;;;;;;;14.80;2.40;;;11.10;99.90;;;;;;5027896;28;20180;-76
2024/03/13 08:55:05;;;;;;;15.07;3.47;;;11.10;99.90;;;;;;5011901;28;20096;-77
2024/03/13 08:57:31;;;;;;;9.07;2.28;;;11.10;99.90;;;;;;5028574;28;20033;-76
2024/03/13 08:59:57;;;;;;;7.18;2.03;;;11.10;99.90;;;;;;5029154;28;20026;-77
2024/03/13 09:02:25;;;;;;;13.00;2.20;;;11.10;99.90;;;;;;5027636;28;20026;-76
2024/03/13 09:04:50;;;;;;;11.30;2.70;;;11.20;99.90;;;;;;5027531;28;20288;-77
2024/03/13 09:07:16;;;;;;;14.65;2.85;;;11.10;99.90;;;;;;5011541;28;20097;-77
2024/03/13 09:09:41;;;;;;;13.30;2.72;;;11.10;99.90;;;;;;5028276;28;20053;-77
2024/03/13 09:12:08;;;;;;;11.48;1.70;;;11.10;99.90;;;;;;5027894;28;20026;-77
2024/03/13 09:14:36;;;;;;;13.43;2.50;;;11.20;99.90;;;;;;5027609;28;20029;-77
2024/03/13 09:17:12;;;;;;;10.02;3.35;;;11.20;99.90;;;;;;5027817;28;20056;-77
2024/03/13 09:19:38;;;;;;;7.43;2.08;;;11.20;99.90;;;;;;5028558;28;20026;-77
2024/03/13 09:22:08;;;;;;;9.63;2.63;;;11.20;99.90;;;;;;5027665;28;20109;-78
2024/03/13 09:24:37;;;;;;;11.00;2.55;;;11.20;99.90;;;;;;5027789;28;20030;-78
2024/03/13 09:27:04;;;;;;;12.50;2.33;;;11.20;99.90;;;;;;5027994;28;20026;-78
2024/03/13 09:29:31;;;;;;;9.18;2.45;;;11.20;99.90;;;;;;5028176;28;20220;-78
2024/03/13 09:31:57;;;;;;;10.43;2.28;;;11.20;99.90;;;;;;5028866;28;20216;-76
2024/03/13 09:34:23;;;;;;;10.85;2.22;;;11.20;99.90;;;;;;5027394;28;20030;-76
2024/03/13 09:36:49;;;;;;;7.55;2.03;;;11.20;99.90;;;;;;5027149;28;20048;-75
2024/03/13 09:39:15;;;;;;;13.13;3.05;;;11.20;99.90;;;;;;5010705;28;20033;-77
2024/03/13 09:41:41;;;;;;;5.25;2.00;;;11.20;99.90;;;;;;5027840;28;20080;-77
2024/03/13 09:44:07;;;;;;;11.73;2.30;;;11.20;99.90;;;;;;5027400;28;20042;-77
2024/03/13 09:46:33;;;;;;;9.35;1.85;;;11.20;99.90;;;;;;5026869;28;20053;-77
2024/03/13 09:48:59;;;;;;;10.00;1.85;;;11.20;99.90;;;;;;5026926;28;20179;-77
2024/03/13 09:51:25;;;;;;;10.32;2.15;;;11.30;99.90;;;;;;5027245;28;20037;-76
2024/03/13 09:53:50;;;;;;;6.78;1.75;;;11.20;99.90;;;;;;5026763;28;20188;-76
2024/03/13 09:56:17;;;;;;;10.80;2.22;;;11.20;99.90;;;;;;5028334;28;20029;-77
2024/03/13 09:58:49;;;;;;;9.48;1.83;;;11.20;99.90;;;;;;5026692;28;20047;-77
2024/03/13 10:01:27;;;;;;;7.65;1.80;;;11.20;99.90;;;;;;5027087;28;20021;-76
2024/03/13 10:03:59;;;;;;;7.47;1.55;;;11.20;99.90;;;;;;5026625;28;20282;-76
2024/03/13 10:06:25;;;;;;;6.07;1.38;;;11.30;99.90;;;;;;5026943;28;20085;-77
2024/03/13 10:08:51;;;;;;;4.35;1.08;;;11.30;99.90;;;;;;5027164;28;20038;-77
2024/03/13 10:11:17;;;;;;;7.75;1.88;;;11.20;99.90;;;;;;5026564;28;20252;-77
2024/03/13 10:13:46;;;;;;;15.23;4.68;;;11.30;99.90;;;;;;5026905;28;20026;-77
2024/03/13 10:16:12;;;;;;;12.52;3.15;;;11.30;99.90;;;;;;5027176;28;20080;-78
2024/03/13 10:18:47;;;;;;;16.92;2.85;;;11.30;99.90;;;;;;5026603;28;20037;-76
2024/03/13 10:21:40;;;;;;;10.38;1.95;;;11.30;99.90;;;;;;5027559;28;20032;-74
2024/03/13 10:24:05;;;;;;;10.68;2.92;;;11.30;99.90;;;;;;5024445;28;20103;-77
2024/03/13 10:26:31;;;;;;;8.10;2.00;;;11.40;99.90;;;;;;5026484;28;20026;-77
2024/03/13 10:28:57;;;;;;;6.10;2.20;;;11.40;99.90;;;;;;5025842;28;20030;-77
2024/03/13 10:31:23;;;;;;;7.40;2.08;;;11.40;99.90;;;;;;5026191;28;20026;-77
2024/03/13 10:33:50;;;;;;;3.95;1.63;;;11.40;99.90;;;;;;5026510;28;20022;-77
2024/03/13 10:36:17;;;;;;;9.63;1.67;;;11.40;99.90;;;;;;5027056;28;20180;-76
2024/03/13 10:38:43;;;;;;;14.15;2.10;;;11.40;99.90;;;;;;5026483;28;20347;-77
2024/03/13 10:41:11;;;;;;;9.93;2.97;;;11.40;99.90;;;;;;5026074;28;20184;-77
2024/03/13 10:43:37;;;;;;;14.60;3.05;;;11.40;99.90;;;;;;5009659;28;20048;-78
2024/03/13 10:46:04;;;;;;;9.48;2.78;;;11.40;99.90;;;;;;5025754;28;20046;-76
2024/03/13 10:48:30;;;;;;;13.00;2.97;;;11.40;99.90;;;;;;5027151;28;20113;-76
2024/03/13 10:50:56;;;;;;;10.45;2.30;;;11.50;99.90;;;;;;5026297;28;20050;-77
2024/03/13 10:53:21;;;;;;;16.83;2.67;;;11.40;99.90;;;;;;5009585;28;20040;-76
2024/03/13 10:55:47;;;;;;;9.85;2.22;;;11.50;99.90;;;;;;5025812;28;20030;-76
2024/03/13 10:58:20;;;;;;;12.00;2.20;;;11.40;99.90;;;;;;5025638;28;20136;-76
2024/03/13 11:00:49;;;;;;;13.02;2.28;;;11.50;99.90;;;;;;5009250;28;20030;-77
2024/03/13 11:03:15;;;;;;;6.60;2.00;;;11.50;99.90;;;;;;5025503;28;20059;-76
2024/03/13 11:05:41;;;;;;;18.63;3.20;;;11.50;99.90;;;;;;5025933;28;20026;-77
2024/03/13 11:08:07;;;;;;;13.90;2.17;;;11.50;99.90;;;;;;5025807;28;20038;-77
2024/03/13 11:10:34;;;;;;;11.38;2.30;;;11.40;99.90;;;;;;5026036;28;20225;-77
2024/03/13 11:13:04;;;;;;;5.55;2.00;;;11.40;99.90;;;;;;5030837;28;20009;-77
2024/03/13 11:15:31;;;;;;;;;;;11.40;99.90;;;;;;5028320;28;20296;-76
2024/03/13 11:18:02;;;;;;;12.40;2.40;;;11.40;99.90;;;;;;5026545;28;19920;-78
2024/03/13 11:20:35;;;;;;;11.63;2.15;;;11.40;99.90;;;;;;5009498;28;20291;-77
2024/03/13 11:23:17;;;;;;;10.88;2.08;;;11.40;99.90;;;;;;5026365;28;20080;-77
2024/03/13 11:25:44;;;;;;;12.55;2.50;;;11.30;99.90;;;;;;5025633;28;20309;-77
2024/03/13 11:28:17;;;;;;;17.25;3.13;;;11.30;99.90;;;;;;5025402;28;20041;-77
2024/03/13 11:30:44;;;;;;;21.10;10.02;;;11.30;99.90;;;;;;5009586;28;20291;-76
2024/03/13 11:33:09;;;;;;;21.38;7.93;;;11.30;99.90;;;;;;5041823;28;20034;-77
2024/03/13 11:35:35;;;;;;;16.98;5.15;;;11.40;99.90;;;;;;5026428;28;20036;-76
2024/03/13 11:38:01;;;;;;;27.05;12.10;;;11.30;99.90;;;;;;5025194;28;20026;-77
2024/03/13 11:40:27;;;;;;;16.88;4.35;;;11.30;99.90;;;;;;5024673;28;20038;-77
2024/03/13 11:42:56;;;;;;;23.10;11.48;;;11.30;99.90;;;;;;5025180;28;20160;-78
2024/03/13 11:45:23;;;;;;;18.10;3.55;;;11.30;99.90;;;;;;5041313;28;20086;-78
2024/03/13 11:47:50;;;;;;;44.67;20.73;;;11.30;99.90;;;;;;5008056;28;20029;-77
2024/03/13 11:50:16;;;;;;;18.92;5.38;;;11.30;99.90;;;;;;5041215;28;20026;-78
2024/03/13 11:53:00;;;;;;;19.98;9.27;;;11.30;99.90;;;;;;5024498;28;20132;-77
2024/03/13 11:55:26;;;;;;;37.67;13.88;;;11.30;99.90;;;;;;5025797;28;20049;-77
2024/03/13 11:58:18;;;;;;;33.17;10.13;;;11.30;99.90;;;;;;5041359;28;20025;-77
2024/03/13 12:00:44;;;;;;;36.13;11.80;;;11.30;99.90;;;;;;5025812;28;20026;-78
2024/03/13 12:03:11;;;;;;;23.08;6.35;;;11.30;99.90;;;;;;5040965;28;20117;-77
2024/03/13 12:05:37;;;;;;;25.50;10.90;;;11.30;99.90;;;;;;5008402;28;20026;-77
2024/03/13 12:08:04;;;;;;;15.50;3.63;;;11.30;99.90;;;;;;5041049;28;20072;-78
2024/03/13 12:10:30;;;;;;;14.90;5.05;;;11.40;99.90;;;;;;5024573;28;20029;-78
2024/03/13 12:12:56;;;;;;;22.17;3.55;;;11.30;99.90;;;;;;5024683;28;20034;-78
2024/03/13 12:15:24;;;;;;;21.10;4.28;;;11.30;99.90;;;;;;5025215;28;20033;-78
2024/03/13 12:17:49;;;;;;;16.25;5.03;;;11.40;99.90;;;;;;5024421;28;20026;-77
2024/03/13 12:20:18;;;;;;;27.25;4.90;;;11.40;99.90;;;;;;5023993;28;20034;-77
2024/03/13 12:22:44;;;;;;;19.65;3.38;;;11.30;99.90;;;;;;5024973;28;20041;-78
2024/03/13 12:25:13;;;;;;;28.92;4.15;;;11.40;99.90;;;;;;5025649;28;20040;-75
2024/03/13 12:27:51;;;;;;;18.05;4.15;;;11.30;99.90;;;;;;5024799;28;20022;-78
2024/03/13 12:30:20;;;;;;;31.60;5.38;;;11.30;99.90;;;;;;5024064;28;20041;-78
2024/03/13 12:32:46;;;;;;;23.65;3.92;;;11.40;99.90;;;;;;5008979;28;20022;-76
2024/03/13 12:35:12;;;;;;;24.02;4.43;;;11.40;99.90;;;;;;5024959;28;20034;-78
2024/03/13 12:37:40;;;;;;;17.20;3.45;;;11.40;99.90;;;;;;5024996;28;20090;-79
2024/03/13 12:40:12;;;;;;;24.48;8.88;;;11.40;99.90;;;;;;5008575;28;20230;-78
2024/03/13 12:42:41;;;;;;;28.67;14.75;;;11.30;99.90;;;;;;5025002;28;20062;-78
2024/03/13 12:45:14;;;;;;;26.80;10.32;;;11.30;99.90;;;;;;5043607;28;20021;-77
2024/03/13 12:47:41;;;;;;;26.58;4.93;;;11.30;99.90;;;;;;5009135;28;20037;-77
2024/03/13 12:50:17;;;;;;;22.05;3.30;;;11.40;99.90;;;;;;5008209;28;20100;-78
2024/03/13 12:52:44;;;;;;;16.30;3.83;;;11.40;99.90;;;;;;5024842;28;20079;-77
2024/03/13 12:55:10;;;;;;;20.52;3.97;;;11.40;99.90;;;;;;5008637;28;20240;-77
2024/03/13 12:57:38;;;;;;;22.63;4.15;;;11.40;99.90;;;;;;5025345;28;20041;-76